createdAt,value
2023-03-16T00:02:27.342Z,10.30
2023-03-16T00:05:01.605Z,12.50
2023-03-16T00:07:35.503Z,13.13
2023-03-16T00:10:12.440Z,12.77
2023-03-16T00:12:45.981Z,11.43
2023-03-16T00:15:21.009Z,7.78
2023-03-16T00:17:54.913Z,9.05
2023-03-16T00:20:28.791Z,12.32
2023-03-16T00:23:02.744Z,13.57
2023-03-16T00:25:36.228Z,8.88
2023-03-16T00:28:09.689Z,7.32
2023-03-16T00:30:47.440Z,12.82
2023-03-16T00:33:23.135Z,12.43
2023-03-16T00:36:02.661Z,15.82
2023-03-16T00:38:38.499Z,12.65
2023-03-16T00:41:14.428Z,8.15
2023-03-16T00:43:49.013Z,5.80
2023-03-16T00:46:27.971Z,9.15
2023-03-16T00:49:02.769Z,13.00
2023-03-16T00:51:36.264Z,11.27
2023-03-16T00:54:09.689Z,9.68
2023-03-16T00:56:43.271Z,10.50
2023-03-16T00:59:16.998Z,13.65
2023-03-16T01:01:52.202Z,10.00
2023-03-16T01:04:26.325Z,11.35
2023-03-16T01:06:59.908Z,10.43
2023-03-16T01:09:37.025Z,8.38
2023-03-16T01:12:12.825Z,10.20
2023-03-16T01:14:47.230Z,16.35
2023-03-16T01:17:22.601Z,13.73
2023-03-16T01:19:56.688Z,10.90
2023-03-16T01:22:30.342Z,15.60
2023-03-16T01:25:03.848Z,11.45
2023-03-16T01:27:37.986Z,16.48
2023-03-16T01:30:13.039Z,14.80
2023-03-16T01:32:48.325Z,12.88
2023-03-16T01:35:22.634Z,14.90
2023-03-16T01:37:56.414Z,13.73
2023-03-16T01:40:32.398Z,16.90
2023-03-16T01:43:06.933Z,21.70
2023-03-16T01:46:18.303Z,16.35
2023-03-16T01:49:02.716Z,11.43
2023-03-16T01:51:44.109Z,14.05
2023-03-16T01:54:24.741Z,14.23
2023-03-16T01:57:04.827Z,13.00
2023-03-16T02:00:23.070Z,10.88
2023-03-16T02:03:15.125Z,10.68
2023-03-16T02:06:16.245Z,16.55
2023-03-16T02:08:56.308Z,14.63
2023-03-16T02:11:29.975Z,8.80
2023-03-16T02:16:48.314Z,15.65
2023-03-16T02:19:33.149Z,23.33
2023-03-16T02:22:10.059Z,17.67
2023-03-16T02:24:43.931Z,9.82
2023-03-16T02:27:25.416Z,13.68
2023-03-16T02:30:11.700Z,19.90
2023-03-16T02:32:55.788Z,10.27
2023-03-16T02:35:29.366Z,13.27
2023-03-16T02:38:02.986Z,12.48
2023-03-16T02:40:43.891Z,10.20
2023-03-16T02:43:25.076Z,13.73
2023-03-16T02:46:11.117Z,8.45
2023-03-16T02:48:49.000Z,10.50
2023-03-16T02:51:22.758Z,10.20
2023-03-16T02:53:56.271Z,16.50
2023-03-16T02:56:33.222Z,12.77
2023-03-16T02:59:07.356Z,13.07
2023-03-16T03:01:42.977Z,13.02
2023-03-16T03:04:17.081Z,10.73
2023-03-16T03:06:50.590Z,13.10
2023-03-16T03:09:24.153Z,13.85
2023-03-16T03:12:00.752Z,10.60
2023-03-16T03:14:38.067Z,12.43
2023-03-16T03:17:14.505Z,15.32
2023-03-16T03:19:47.981Z,15.10
2023-03-16T03:22:21.591Z,18.25
2023-03-16T03:24:55.481Z,14.02
2023-03-16T03:27:29.066Z,13.15
2023-03-16T03:30:02.763Z,21.85
2023-03-16T03:32:38.094Z,15.63
2023-03-16T03:35:13.109Z,16.25
2023-03-16T03:37:46.813Z,15.13
2023-03-16T03:40:22.631Z,20.42
2023-03-16T03:43:03.034Z,13.77
2023-03-16T03:45:39.252Z,23.98
2023-03-16T03:48:14.742Z,22.95
2023-03-16T03:50:48.240Z,20.45
2023-03-16T03:53:40.072Z,19.85
2023-03-16T03:56:33.860Z,13.20
2023-03-16T03:59:07.492Z,20.73
2023-03-16T04:01:59.634Z,13.27
2023-03-16T04:04:44.926Z,13.52
2023-03-16T04:07:19.929Z,11.30
2023-03-16T04:09:54.952Z,12.30
2023-03-16T04:12:48.649Z,12.15
2023-03-16T04:15:22.799Z,9.85
2023-03-16T04:18:22.555Z,10.68
2023-03-16T04:20:57.874Z,13.77
2023-03-16T04:23:33.804Z,12.50
2023-03-16T04:26:07.763Z,11.38
2023-03-16T04:28:41.419Z,14.95
2023-03-16T04:31:16.743Z,10.02
2023-03-16T04:33:54.654Z,13.15
2023-03-16T04:36:30.592Z,10.55
2023-03-16T04:39:05.150Z,6.85
2023-03-16T04:41:38.917Z,17.83
2023-03-16T04:44:18.010Z,8.48
2023-03-16T04:46:51.542Z,7.22
2023-03-16T04:49:26.613Z,9.40
2023-03-16T04:52:02.150Z,10.65
2023-03-16T04:54:36.136Z,12.15
2023-03-16T04:57:09.950Z,9.40
2023-03-16T04:59:48.677Z,7.40
2023-03-16T05:02:28.987Z,291.90
2023-03-16T05:05:07.219Z,11.45
2023-03-16T05:07:44.057Z,8.07
2023-03-16T05:10:19.919Z,10.82
2023-03-16T05:12:53.921Z,8.70
2023-03-16T05:15:28.438Z,7.45
2023-03-16T05:18:06.877Z,5.18
2023-03-16T05:20:41.322Z,17.15
2023-03-16T05:23:16.783Z,7.15
2023-03-16T05:25:53.899Z,9.68
2023-03-16T05:28:30.212Z,10.50
2023-03-16T05:31:07.757Z,8.35
2023-03-16T05:33:56.216Z,12.07
2023-03-16T05:36:29.750Z,10.23
2023-03-16T05:39:12.239Z,9.55
2023-03-16T05:41:50.056Z,11.65
2023-03-16T05:44:28.949Z,16.27
2023-03-16T05:47:20.171Z,14.73
2023-03-16T05:49:59.583Z,10.25
2023-03-16T05:52:39.481Z,16.38
2023-03-16T05:55:21.648Z,15.05
2023-03-16T05:58:03.329Z,11.85
2023-03-16T06:00:39.479Z,14.13
2023-03-16T06:03:27.545Z,7.65
2023-03-16T06:06:03.512Z,13.35
2023-03-16T06:08:41.568Z,11.88
2023-03-16T06:11:19.478Z,10.18
2023-03-16T06:13:53.402Z,8.38
2023-03-16T06:16:27.462Z,9.07
2023-03-16T06:19:01.083Z,14.35
2023-03-16T06:21:36.132Z,13.40
2023-03-16T06:24:14.907Z,9.30
2023-03-16T06:26:49.803Z,14.52
2023-03-16T06:29:24.463Z,10.93
2023-03-16T06:31:58.065Z,9.38
2023-03-16T06:34:32.003Z,14.98
2023-03-16T06:37:05.852Z,10.80
2023-03-16T06:39:39.636Z,10.45
2023-03-16T06:42:14.637Z,9.57
2023-03-16T06:44:48.172Z,13.20
2023-03-16T06:47:22.052Z,13.20
2023-03-16T06:49:56.097Z,13.98
2023-03-16T06:52:32.820Z,9.43
2023-03-16T06:55:07.433Z,9.50
2023-03-16T06:57:44.872Z,10.75
2023-03-16T07:00:18.933Z,15.10
2023-03-16T07:02:52.378Z,10.07
2023-03-16T07:05:27.041Z,6.70
2023-03-16T07:08:01.284Z,8.85
2023-03-16T07:10:34.847Z,9.55
2023-03-16T07:13:09.687Z,13.57
2023-03-16T07:15:44.656Z,9.27
2023-03-16T07:18:18.176Z,13.27
2023-03-16T07:20:51.920Z,9.50
2023-03-16T07:23:25.878Z,19.63
2023-03-16T07:26:04.129Z,110.35
2023-03-16T07:28:42.019Z,17.88
2023-03-16T07:31:15.970Z,12.13
2023-03-16T07:33:49.475Z,12.40
2023-03-16T07:36:31.771Z,7.18
2023-03-16T07:39:07.936Z,12.88
2023-03-16T07:41:42.282Z,9.43
2023-03-16T07:44:25.818Z,11.82
2023-03-16T07:47:01.686Z,9.25
2023-03-16T07:49:37.292Z,15.73
2023-03-16T07:52:13.729Z,5.97
2023-03-16T07:54:48.884Z,7.90
2023-03-16T07:57:22.787Z,10.25
2023-03-16T07:59:58.532Z,7.32
2023-03-16T08:02:33.140Z,21.95
2023-03-16T08:05:07.055Z,8.43
2023-03-16T08:07:41.316Z,14.57
2023-03-16T08:10:19.907Z,7.38
2023-03-16T08:13:00.622Z,14.05
2023-03-16T08:15:35.639Z,6.68
2023-03-16T08:18:23.872Z,4.50
2023-03-16T08:20:59.137Z,7.38
2023-03-16T08:23:33.708Z,11.30
2023-03-16T08:26:08.949Z,6.60
2023-03-16T08:28:47.666Z,5.18
2023-03-16T08:31:23.628Z,9.00
2023-03-16T08:34:04.328Z,31.27
2023-03-16T08:36:43.960Z,19.67
2023-03-16T08:39:19.055Z,4.32
2023-03-16T08:41:55.333Z,7.65
2023-03-16T08:44:55.295Z,6.80
2023-03-16T08:47:31.141Z,4.72
2023-03-16T08:50:07.078Z,6.75
2023-03-16T08:52:40.805Z,9.20
2023-03-16T08:55:17.609Z,6.15
2023-03-16T08:57:51.044Z,8.23
2023-03-16T09:00:25.476Z,9.02
2023-03-16T09:03:00.760Z,3.63
2023-03-16T09:05:34.755Z,9.45
2023-03-16T09:08:08.863Z,5.38
2023-03-16T09:10:42.526Z,6.68
2023-03-16T09:13:16.360Z,4.57
2023-03-16T09:15:49.879Z,4.57
2023-03-16T09:18:26.260Z,6.70
2023-03-16T09:21:00.214Z,5.05
2023-03-16T09:23:34.966Z,3.80
2023-03-16T09:26:08.767Z,4.93
2023-03-16T09:28:43.218Z,6.75
2023-03-16T09:31:19.971Z,13.32
2023-03-16T09:33:54.956Z,3.90
2023-03-16T09:36:28.469Z,4.30
2023-03-16T09:39:03.281Z,13.18
2023-03-16T09:41:46.156Z,5.45
2023-03-16T09:44:32.972Z,5.57
2023-03-16T09:47:07.573Z,3.88
2023-03-16T09:49:47.636Z,5.47
2023-03-16T09:52:31.345Z,3.50
2023-03-16T09:55:11.732Z,6.10
2023-03-16T09:57:47.280Z,4.20
2023-03-16T10:00:24.244Z,5.65
2023-03-16T10:03:18.694Z,6.03
2023-03-16T10:06:00.914Z,5.78
2023-03-16T10:08:40.771Z,7.63
2023-03-16T10:11:29.419Z,3.58
2023-03-16T10:14:11.220Z,2.95
2023-03-16T10:16:50.613Z,8.20
2023-03-16T10:19:34.515Z,6.90
2023-03-16T10:22:21.364Z,6.18
2023-03-16T10:25:03.822Z,6.60
2023-03-16T10:27:39.496Z,3.70
2023-03-16T10:30:21.718Z,5.00
2023-03-16T10:32:56.234Z,4.63
2023-03-16T10:35:42.862Z,3.55
2023-03-16T10:38:38.697Z,3.67
2023-03-16T10:41:24.133Z,3.13
2023-03-16T10:44:01.869Z,4.38
2023-03-16T10:46:40.027Z,5.75
2023-03-16T10:49:23.511Z,6.90
2023-03-16T10:51:59.517Z,4.65
2023-03-16T10:54:37.612Z,8.35
2023-03-16T10:57:29.586Z,7.80
2023-03-16T11:00:20.595Z,5.35
2023-03-16T11:02:55.816Z,5.82
2023-03-16T11:05:32.255Z,4.18
2023-03-16T11:08:12.569Z,5.03
2023-03-16T11:10:57.220Z,4.78
2023-03-16T11:13:35.059Z,5.22
2023-03-16T11:16:31.640Z,4.88
2023-03-16T11:19:14.936Z,3.75
2023-03-16T11:21:55.166Z,6.32
2023-03-16T11:24:35.792Z,5.13
2023-03-16T11:27:23.208Z,5.22
2023-03-16T11:30:05.437Z,5.90
2023-03-16T11:32:41.590Z,4.25
2023-03-16T11:35:18.153Z,3.88
2023-03-16T11:38:09.444Z,12.15
2023-03-16T11:40:54.009Z,3.72
2023-03-16T11:43:50.445Z,3.72
2023-03-16T11:46:26.430Z,9.10
2023-03-16T11:49:15.786Z,11.52
2023-03-16T11:51:56.518Z,3.00
2023-03-16T11:54:48.094Z,5.65
2023-03-16T11:57:33.184Z,5.38
2023-03-16T12:00:20.950Z,4.63
2023-03-16T12:03:27.633Z,8.55
2023-03-16T12:06:22.426Z,5.28
2023-03-16T12:09:23.027Z,7.97
2023-03-16T12:12:02.122Z,5.03
2023-03-16T12:14:40.244Z,5.80
2023-03-16T12:17:19.548Z,7.50
2023-03-16T12:19:55.914Z,4.25
2023-03-16T12:22:34.497Z,3.92
2023-03-16T12:25:18.092Z,5.28
2023-03-16T12:27:54.960Z,5.57
2023-03-16T12:30:41.169Z,5.32
2023-03-16T12:33:23.206Z,5.82
2023-03-16T12:36:02.724Z,6.43
2023-03-16T12:38:48.933Z,4.03
2023-03-16T12:41:34.978Z,6.25
2023-03-16T12:44:15.852Z,2.75
2023-03-16T12:46:57.773Z,3.63
2023-03-16T12:49:36.060Z,3.93
2023-03-16T12:52:12.589Z,5.80
2023-03-16T12:54:54.105Z,3.00
2023-03-16T12:57:28.166Z,3.15
2023-03-16T13:00:04.875Z,4.90
2023-03-16T13:02:43.067Z,1.95
2023-03-16T13:05:30.074Z,5.40
2023-03-16T13:08:09.644Z,6.15
2023-03-16T13:10:44.070Z,9.77
2023-03-16T13:13:18.646Z,6.85
2023-03-16T13:16:05.866Z,6.25
2023-03-16T13:18:44.785Z,10.65
2023-03-16T13:21:23.015Z,3.90
2023-03-16T13:23:59.708Z,9.57
2023-03-16T13:26:42.113Z,4.70
2023-03-16T13:29:25.624Z,6.20
2023-03-16T13:32:01.071Z,6.82
2023-03-16T13:34:38.773Z,5.32
2023-03-16T13:37:16.656Z,11.07
2023-03-16T13:39:55.217Z,6.53
2023-03-16T13:42:31.608Z,7.63
2023-03-16T13:45:14.539Z,4.30
2023-03-16T13:47:49.604Z,7.07
2023-03-16T13:50:23.731Z,5.93
2023-03-16T13:53:04.126Z,3.42
2023-03-16T13:55:39.112Z,2.88
2023-03-16T13:58:22.258Z,5.65
2023-03-16T14:00:59.915Z,4.45
2023-03-16T14:03:36.101Z,6.15
2023-03-16T14:06:22.944Z,5.75
2023-03-16T14:09:01.485Z,5.95
2023-03-16T14:11:35.339Z,4.28
2023-03-16T14:14:16.806Z,5.95
2023-03-16T14:16:50.521Z,5.22
2023-03-16T14:19:34.543Z,6.85
2023-03-16T14:22:12.450Z,3.75
2023-03-16T14:24:53.818Z,4.18
2023-03-16T14:27:32.935Z,11.10
2023-03-16T14:30:18.217Z,6.15
2023-03-16T14:33:00.721Z,4.53
2023-03-16T14:35:41.241Z,5.32
2023-03-16T14:38:23.344Z,5.50
2023-03-16T14:41:00.095Z,6.13
2023-03-16T14:43:35.934Z,5.45
2023-03-16T14:46:14.968Z,4.50
2023-03-16T14:48:48.525Z,4.20
2023-03-16T14:51:22.439Z,5.07
2023-03-16T14:53:56.206Z,5.95
2023-03-16T14:56:36.607Z,6.30
2023-03-16T14:59:10.112Z,4.65
2023-03-16T15:01:45.657Z,6.28
2023-03-16T15:04:23.170Z,7.18
2023-03-16T15:06:56.731Z,7.05
2023-03-16T15:09:37.170Z,8.55
2023-03-16T15:12:16.579Z,6.43
2023-03-16T15:15:07.690Z,6.82
2023-03-16T15:17:41.268Z,5.32
2023-03-16T15:20:16.623Z,5.03
2023-03-16T15:22:51.822Z,5.88
2023-03-16T15:25:36.273Z,4.28
2023-03-16T15:28:17.422Z,5.95
2023-03-16T15:30:53.532Z,8.50
2023-03-16T15:33:27.816Z,4.85
2023-03-16T15:36:04.035Z,9.48
2023-03-16T15:38:47.327Z,8.30
2023-03-16T15:41:21.320Z,8.48
2023-03-16T15:44:00.738Z,5.03
2023-03-16T15:46:34.316Z,4.70
2023-03-16T15:49:08.330Z,10.77
2023-03-16T15:51:42.160Z,7.05
2023-03-16T15:54:15.833Z,11.82
2023-03-16T15:56:54.204Z,7.78
2023-03-16T15:59:33.617Z,5.82
2023-03-16T16:02:25.590Z,9.35
2023-03-16T16:04:59.564Z,9.75
2023-03-16T16:07:33.277Z,14.48
2023-03-16T16:10:07.762Z,15.98
2023-03-16T16:12:42.290Z,14.38
2023-03-16T16:15:23.188Z,14.95
2023-03-16T16:18:19.808Z,13.00
2023-03-16T16:20:51.401Z,14.15
2023-03-16T16:23:26.107Z,11.25
2023-03-16T16:26:03.878Z,9.00
2023-03-16T16:28:37.378Z,13.80
2023-03-16T16:31:14.674Z,17.23
2023-03-16T16:33:48.403Z,11.60
2023-03-16T16:36:22.538Z,8.75
2023-03-16T16:38:57.255Z,10.70
2023-03-16T16:41:33.332Z,12.07
2023-03-16T16:44:14.817Z,12.02
2023-03-16T16:46:51.862Z,12.23
2023-03-16T16:49:28.288Z,9.50
2023-03-16T16:52:02.359Z,9.68
2023-03-16T16:54:37.052Z,9.55
2023-03-16T16:57:17.420Z,17.08
2023-03-16T16:59:51.000Z,25.08
2023-03-16T17:02:31.540Z,16.75
2023-03-16T17:05:05.351Z,16.60
2023-03-16T17:07:39.289Z,31.48
2023-03-16T17:10:16.792Z,27.23
2023-03-16T17:12:50.932Z,20.95
2023-03-16T17:15:28.785Z,20.58
2023-03-16T17:18:07.801Z,18.55
2023-03-16T17:20:41.763Z,21.20
2023-03-16T17:23:27.626Z,21.05
2023-03-16T17:26:05.297Z,19.58
2023-03-16T17:28:42.991Z,21.98
2023-03-16T17:31:22.202Z,69.03
2023-03-16T17:33:58.328Z,71.50
2023-03-16T17:36:32.599Z,98.47
2023-03-16T17:39:13.564Z,80.93
2023-03-16T17:41:47.641Z,58.53
2023-03-16T17:44:21.579Z,73.38
2023-03-16T17:46:55.535Z,80.00
2023-03-16T17:49:31.893Z,89.57
2023-03-16T17:52:13.117Z,93.47
2023-03-16T17:54:47.539Z,107.20
2023-03-16T17:57:25.010Z,116.50
2023-03-16T17:59:59.471Z,135.93
2023-03-16T18:02:41.610Z,114.03
2023-03-16T18:05:20.754Z,111.65
2023-03-16T18:07:55.846Z,110.63
2023-03-16T18:10:31.528Z,140.52
2023-03-16T18:13:08.348Z,145.45
2023-03-16T18:15:41.963Z,99.10
2023-03-16T18:18:18.895Z,117.93
2023-03-16T18:20:56.138Z,122.05
2023-03-16T18:23:32.192Z,100.18
2023-03-16T18:26:07.077Z,158.10
2023-03-16T18:28:40.576Z,138.65
2023-03-16T18:31:21.553Z,106.68
2023-03-16T18:33:57.544Z,82.93
2023-03-16T18:36:34.381Z,93.38
2023-03-16T18:39:15.788Z,84.80
2023-03-16T18:41:49.795Z,122.53
2023-03-16T18:44:25.812Z,128.23
2023-03-16T18:47:04.078Z,153.65
2023-03-16T18:49:38.385Z,101.10
2023-03-16T18:52:20.210Z,98.80
2023-03-16T18:54:55.695Z,97.25
2023-03-16T18:57:31.777Z,96.30
2023-03-16T19:00:06.545Z,103.07
2023-03-16T19:02:41.119Z,92.47
2023-03-16T19:05:17.579Z,79.60
2023-03-16T19:07:53.861Z,86.65
2023-03-16T19:10:29.723Z,84.90
2023-03-16T19:13:03.403Z,82.95
2023-03-16T19:15:39.348Z,84.68
2023-03-16T19:18:13.081Z,115.38
2023-03-16T19:20:50.281Z,96.22
2023-03-16T19:23:28.649Z,88.90
2023-03-16T19:26:02.993Z,89.07
2023-03-16T19:28:39.502Z,78.35
2023-03-16T19:31:19.677Z,74.60
2023-03-16T19:33:54.127Z,81.90
2023-03-16T19:36:30.349Z,87.00
2023-03-16T19:39:05.731Z,65.88
2023-03-16T19:41:39.897Z,58.33
2023-03-16T19:44:18.041Z,70.85
2023-03-16T19:46:52.159Z,57.55
2023-03-16T19:49:28.106Z,62.58
2023-03-16T19:52:01.677Z,68.55
2023-03-16T19:54:38.705Z,74.72
2023-03-16T19:57:15.412Z,71.32
2023-03-16T19:59:54.685Z,86.30
2023-03-16T20:02:30.651Z,77.15
2023-03-16T20:05:04.795Z,65.43
2023-03-16T20:07:38.554Z,70.40
2023-03-16T20:10:19.663Z,52.33
2023-03-16T20:12:55.850Z,60.63
2023-03-16T20:15:32.464Z,55.28
2023-03-16T20:18:12.851Z,92.97
2023-03-16T20:20:47.382Z,77.20
2023-03-16T20:23:24.754Z,78.95
2023-03-16T20:26:03.037Z,80.85
2023-03-16T20:28:38.777Z,81.50
2023-03-16T20:31:19.314Z,72.10
2023-03-16T20:33:54.174Z,58.42
2023-03-16T20:36:28.483Z,56.45
2023-03-16T20:39:02.055Z,56.17
2023-03-16T20:41:39.290Z,67.88
2023-03-16T20:44:16.778Z,77.50
2023-03-16T20:46:50.547Z,63.65
2023-03-16T20:49:34.151Z,63.17
2023-03-16T20:52:16.421Z,61.42
2023-03-16T20:54:50.487Z,80.45
2023-03-16T20:57:27.114Z,78.38
2023-03-16T21:00:00.690Z,77.85
2023-03-16T21:02:36.145Z,79.65
2023-03-16T21:05:13.219Z,79.97
2023-03-16T21:07:46.799Z,84.97
2023-03-16T21:10:23.640Z,93.93
2023-03-16T21:12:59.244Z,114.53
2023-03-16T21:15:34.489Z,110.40
2023-03-16T21:18:13.234Z,88.82
2023-03-16T21:20:47.984Z,93.88
2023-03-16T21:23:23.865Z,100.13
2023-03-16T21:26:00.655Z,116.20
2023-03-16T21:28:36.896Z,110.43
2023-03-16T21:31:17.543Z,99.07
2023-03-16T21:36:27.543Z,100.20
2023-03-16T21:39:01.331Z,97.07
2023-03-16T21:41:34.842Z,99.05
2023-03-16T21:44:10.022Z,81.60
2023-03-16T21:46:43.630Z,84.90
2023-03-16T21:49:17.163Z,86.95
2023-03-16T21:51:50.797Z,102.65
2023-03-16T21:54:24.326Z,84.70
2023-03-16T21:56:57.857Z,90.15
2023-03-16T21:59:32.801Z,107.97
2023-03-16T22:02:18.082Z,106.82
2023-03-16T22:04:52.280Z,96.30
2023-03-16T22:07:25.913Z,100.20
2023-03-16T22:09:59.385Z,92.53
2023-03-16T22:12:32.848Z,111.03
2023-03-16T22:15:09.333Z,96.03
2023-03-16T22:17:43.170Z,105.55
2023-03-16T22:20:19.319Z,108.45
2023-03-16T22:22:53.773Z,96.55
2023-03-16T22:25:27.871Z,109.55
2023-03-16T22:28:02.230Z,89.30
2023-03-16T22:30:37.128Z,96.15
2023-03-16T22:33:17.937Z,122.38
2023-03-16T22:35:52.008Z,130.95
2023-03-16T22:38:25.603Z,109.93
2023-03-16T22:40:59.710Z,98.13
2023-03-16T22:43:37.168Z,98.30
2023-03-16T22:46:18.985Z,92.65
2023-03-16T22:48:54.074Z,84.43
2023-03-16T22:51:30.836Z,78.80
2023-03-16T22:54:08.364Z,81.88
2023-03-16T22:56:43.261Z,88.47
2023-03-16T22:59:19.752Z,65.28
2023-03-16T23:01:54.926Z,68.90
2023-03-16T23:04:32.356Z,72.55
2023-03-16T23:07:12.494Z,73.00
2023-03-16T23:09:46.724Z,68.57
2023-03-16T23:12:22.629Z,74.55
2023-03-16T23:14:56.264Z,55.72
2023-03-16T23:17:31.690Z,69.72
2023-03-16T23:20:17.147Z,64.53
2023-03-16T23:22:51.661Z,88.55
2023-03-16T23:25:25.728Z,73.00
2023-03-16T23:28:01.755Z,90.40
2023-03-16T23:30:36.245Z,98.85
2023-03-16T23:33:14.037Z,77.85
2023-03-16T23:35:47.599Z,87.50
2023-03-16T23:38:21.237Z,77.22
2023-03-16T23:40:54.723Z,83.88
2023-03-16T23:43:28.267Z,92.07
2023-03-16T23:46:01.833Z,83.95
2023-03-16T23:48:38.917Z,71.68
2023-03-16T23:51:20.367Z,90.82
2023-03-16T23:53:54.161Z,76.50
2023-03-16T23:56:28.130Z,79.32
2023-03-16T23:59:01.592Z,92.13
